sensor_id;sensor_type;location;lat;lon;timestamp;temperature;humidity
70068;DHT22;57425;51.616;6.680;2023-08-12T00:02:09;24.10;80.80
70068;DHT22;57425;51.616;6.680;2023-08-12T00:04:39;24.20;80.20
70068;DHT22;57425;51.616;6.680;2023-08-12T00:07:04;24.20;80.70
70068;DHT22;57425;51.616;6.680;2023-08-12T00:09:30;24.20;80.50
70068;DHT22;57425;51.616;6.680;2023-08-12T00:11:55;24.20;80.30
70068;DHT22;57425;51.616;6.680;2023-08-12T00:14:21;24.20;80.60
70068;DHT22;57425;51.616;6.680;2023-08-12T00:16:46;24.10;80.60
70068;DHT22;57425;51.616;6.680;2023-08-12T00:19:12;24.10;80.90
70068;DHT22;57425;51.616;6.680;2023-08-12T00:21:38;24.10;80.90
70068;DHT22;57425;51.616;6.680;2023-08-12T00:24:04;24.20;81.00
70068;DHT22;57425;51.616;6.680;2023-08-12T00:26:30;24.10;81.10
70068;DHT22;57425;51.616;6.680;2023-08-12T00:28:56;24.10;81.00
70068;DHT22;57425;51.616;6.680;2023-08-12T00:31:21;24.00;81.00
70068;DHT22;57425;51.616;6.680;2023-08-12T00:33:47;24.00;81.70
70068;DHT22;57425;51.616;6.680;2023-08-12T00:36:12;24.00;81.30
70068;DHT22;57425;51.616;6.680;2023-08-12T00:38:38;24.10;81.20
70068;DHT22;57425;51.616;6.680;2023-08-12T00:41:04;24.20;81.50
70068;DHT22;57425;51.616;6.680;2023-08-12T00:43:29;24.00;81.00
70068;DHT22;57425;51.616;6.680;2023-08-12T00:45:55;23.90;79.80
70068;DHT22;57425;51.616;6.680;2023-08-12T00:48:21;24.10;78.00
70068;DHT22;57425;51.616;6.680;2023-08-12T00:50:47;23.90;76.70
70068;DHT22;57425;51.616;6.680;2023-08-12T00:53:13;23.90;76.70
70068;DHT22;57425;51.616;6.680;2023-08-12T00:55:40;23.90;76.70
70068;DHT22;57425;51.616;6.680;2023-08-12T00:58:06;23.90;76.70
70068;DHT22;57425;51.616;6.680;2023-08-12T01:00:32;23.90;76.70
70068;DHT22;57425;51.616;6.680;2023-08-12T01:02:57;23.90;76.80
70068;DHT22;57425;51.616;6.680;2023-08-12T01:05:24;23.90;76.80
70068;DHT22;57425;51.616;6.680;2023-08-12T01:07:49;23.80;76.80
70068;DHT22;57425;51.616;6.680;2023-08-12T01:10:16;23.90;76.90
70068;DHT22;57425;51.616;6.680;2023-08-12T01:12:50;23.80;77.50
70068;DHT22;57425;51.616;6.680;2023-08-12T01:15:21;23.90;77.10
70068;DHT22;57425;51.616;6.680;2023-08-12T01:17:49;23.80;77.10
70068;DHT22;57425;51.616;6.680;2023-08-12T01:20:19;23.80;77.70
70068;DHT22;57425;51.616;6.680;2023-08-12T01:23:07;23.80;77.10
70068;DHT22;57425;51.616;6.680;2023-08-12T01:25:33;23.80;77.20
70068;DHT22;57425;51.616;6.680;2023-08-12T01:27:59;23.80;77.20
70068;DHT22;57425;51.616;6.680;2023-08-12T01:30:25;23.80;77.30
70068;DHT22;57425;51.616;6.680;2023-08-12T01:33:22;23.80;77.30
70068;DHT22;57425;51.616;6.680;2023-08-12T01:36:00;23.80;77.30
70068;DHT22;57425;51.616;6.680;2023-08-12T01:38:28;23.80;77.50
70068;DHT22;57425;51.616;6.680;2023-08-12T01:40:56;23.70;77.40
70068;DHT22;57425;51.616;6.680;2023-08-12T01:43:21;23.70;77.40
70068;DHT22;57425;51.616;6.680;2023-08-12T01:45:48;23.70;77.50
70068;DHT22;57425;51.616;6.680;2023-08-12T01:48:13;23.70;77.50
70068;DHT22;57425;51.616;6.680;2023-08-12T01:50:39;23.70;77.50
70068;DHT22;57425;51.616;6.680;2023-08-12T01:53:04;23.70;77.60
70068;DHT22;57425;51.616;6.680;2023-08-12T01:55:31;23.70;77.60
70068;DHT22;57425;51.616;6.680;2023-08-12T01:57:57;23.70;77.70
70068;DHT22;57425;51.616;6.680;2023-08-12T02:00:22;23.70;77.70
70068;DHT22;57425;51.616;6.680;2023-08-12T02:02:48;23.70;78.30
70068;DHT22;57425;51.616;6.680;2023-08-12T02:05:16;23.60;77.70
70068;DHT22;57425;51.616;6.680;2023-08-12T02:07:42;23.70;77.80
70068;DHT22;57425;51.616;6.680;2023-08-12T02:10:08;23.70;77.80
70068;DHT22;57425;51.616;6.680;2023-08-12T02:12:33;23.60;77.70
70068;DHT22;57425;51.616;6.680;2023-08-12T02:14:59;23.60;77.80
70068;DHT22;57425;51.616;6.680;2023-08-12T02:17:25;23.60;77.80
70068;DHT22;57425;51.616;6.680;2023-08-12T02:19:50;23.60;77.90
70068;DHT22;57425;51.616;6.680;2023-08-12T02:22:16;23.60;77.90
70068;DHT22;57425;51.616;6.680;2023-08-12T02:24:41;23.60;78.00
70068;DHT22;57425;51.616;6.680;2023-08-12T02:27:07;23.60;78.00
70068;DHT22;57425;51.616;6.680;2023-08-12T02:29:32;23.60;78.00
70068;DHT22;57425;51.616;6.680;2023-08-12T02:31:58;23.60;78.10
70068;DHT22;57425;51.616;6.680;2023-08-12T02:34:24;23.60;78.60
70068;DHT22;57425;51.616;6.680;2023-08-12T02:36:49;23.60;78.10
70068;DHT22;57425;51.616;6.680;2023-08-12T02:39:15;23.60;78.10
70068;DHT22;57425;51.616;6.680;2023-08-12T02:41:41;23.60;78.20
70068;DHT22;57425;51.616;6.680;2023-08-12T02:44:06;23.60;78.30
70068;DHT22;57425;51.616;6.680;2023-08-12T02:46:32;23.50;78.20
70068;DHT22;57425;51.616;6.680;2023-08-12T02:48:58;23.50;78.20
70068;DHT22;57425;51.616;6.680;2023-08-12T02:51:23;23.50;78.30
70068;DHT22;57425;51.616;6.680;2023-08-12T02:53:49;23.50;78.30
70068;DHT22;57425;51.616;6.680;2023-08-12T02:56:14;23.50;78.40
70068;DHT22;57425;51.616;6.680;2023-08-12T02:58:40;23.50;78.40
70068;DHT22;57425;51.616;6.680;2023-08-12T03:01:05;23.50;78.40
70068;DHT22;57425;51.616;6.680;2023-08-12T03:03:31;23.50;78.50
70068;DHT22;57425;51.616;6.680;2023-08-12T03:05:57;23.50;79.00
70068;DHT22;57425;51.616;6.680;2023-08-12T03:08:22;23.50;78.50
70068;DHT22;57425;51.616;6.680;2023-08-12T03:10:48;23.50;78.60
70068;DHT22;57425;51.616;6.680;2023-08-12T03:13:13;23.50;78.60
70068;DHT22;57425;51.616;6.680;2023-08-12T03:15:39;23.50;78.70
70068;DHT22;57425;51.616;6.680;2023-08-12T03:18:05;23.50;78.70
70068;DHT22;57425;51.616;6.680;2023-08-12T03:20:31;23.50;78.70
70068;DHT22;57425;51.616;6.680;2023-08-12T03:22:57;23.40;78.70
70068;DHT22;57425;51.616;6.680;2023-08-12T03:25:22;23.50;78.80
70068;DHT22;57425;51.616;6.680;2023-08-12T03:27:48;23.40;78.70
70068;DHT22;57425;51.616;6.680;2023-08-12T03:30:13;23.40;79.40
70068;DHT22;57425;51.616;6.680;2023-08-12T03:32:39;23.40;78.80
70068;DHT22;57425;51.616;6.680;2023-08-12T03:35:05;23.40;78.80
70068;DHT22;57425;51.616;6.680;2023-08-12T03:37:30;23.40;78.80
70068;DHT22;57425;51.616;6.680;2023-08-12T03:39:56;23.40;78.80
70068;DHT22;57425;51.616;6.680;2023-08-12T03:42:22;23.40;78.80
70068;DHT22;57425;51.616;6.680;2023-08-12T03:44:47;23.40;79.50
70068;DHT22;57425;51.616;6.680;2023-08-12T03:47:13;23.40;78.90
70068;DHT22;57425;51.616;6.680;2023-08-12T03:49:38;23.40;78.90
70068;DHT22;57425;51.616;6.680;2023-08-12T03:52:04;23.40;78.90
70068;DHT22;57425;51.616;6.680;2023-08-12T03:54:32;23.40;79.00
70068;DHT22;57425;51.616;6.680;2023-08-12T03:56:58;23.30;79.00
70068;DHT22;57425;51.616;6.680;2023-08-12T03:59:24;23.30;78.90
70068;DHT22;57425;51.616;6.680;2023-08-12T04:01:49;23.30;78.90
70068;DHT22;57425;51.616;6.680;2023-08-12T04:04:15;23.30;78.90
70068;DHT22;57425;51.616;6.680;2023-08-12T04:06:41;23.30;78.90
70068;DHT22;57425;51.616;6.680;2023-08-12T04:09:07;23.30;79.00
70068;DHT22;57425;51.616;6.680;2023-08-12T04:11:32;23.30;79.00
70068;DHT22;57425;51.616;6.680;2023-08-12T04:13:58;23.30;79.50
70068;DHT22;57425;51.616;6.680;2023-08-12T04:16:23;23.30;79.00
70068;DHT22;57425;51.616;6.680;2023-08-12T04:18:49;23.30;79.10
70068;DHT22;57425;51.616;6.680;2023-08-12T04:21:14;23.30;79.60
70068;DHT22;57425;51.616;6.680;2023-08-12T04:23:41;23.30;79.10
70068;DHT22;57425;51.616;6.680;2023-08-12T04:26:07;23.30;79.20
70068;DHT22;57425;51.616;6.680;2023-08-12T04:28:32;23.30;79.20
70068;DHT22;57425;51.616;6.680;2023-08-12T04:30:58;23.30;79.20
70068;DHT22;57425;51.616;6.680;2023-08-12T04:33:24;23.30;79.20
70068;DHT22;57425;51.616;6.680;2023-08-12T04:35:50;23.30;79.20
70068;DHT22;57425;51.616;6.680;2023-08-12T04:38:15;23.30;79.30
70068;DHT22;57425;51.616;6.680;2023-08-12T04:40:41;23.30;79.20
70068;DHT22;57425;51.616;6.680;2023-08-12T04:43:09;23.20;79.20
70068;DHT22;57425;51.616;6.680;2023-08-12T04:45:35;23.30;79.20
70068;DHT22;57425;51.616;6.680;2023-08-12T04:48:00;23.20;79.10
70068;DHT22;57425;51.616;6.680;2023-08-12T04:50:30;23.30;79.20
70068;DHT22;57425;51.616;6.680;2023-08-12T04:52:56;23.20;79.20
70068;DHT22;57425;51.616;6.680;2023-08-12T04:55:21;23.20;79.10
70068;DHT22;57425;51.616;6.680;2023-08-12T04:57:47;23.20;79.20
70068;DHT22;57425;51.616;6.680;2023-08-12T05:00:13;23.20;79.10
70068;DHT22;57425;51.616;6.680;2023-08-12T05:02:39;23.20;79.00
70068;DHT22;57425;51.616;6.680;2023-08-12T05:05:04;23.20;79.10
70068;DHT22;57425;51.616;6.680;2023-08-12T05:07:30;23.20;79.00
70068;DHT22;57425;51.616;6.680;2023-08-12T05:09:56;23.20;79.00
70068;DHT22;57425;51.616;6.680;2023-08-12T05:12:22;23.20;78.90
70068;DHT22;57425;51.616;6.680;2023-08-12T05:14:48;23.20;79.50
70068;DHT22;57425;51.616;6.680;2023-08-12T05:17:13;23.20;80.30
70068;DHT22;57425;51.616;6.680;2023-08-12T05:19:39;23.10;80.50
70068;DHT22;57425;51.616;6.680;2023-08-12T05:22:05;23.10;80.90
70068;DHT22;57425;51.616;6.680;2023-08-12T05:24:30;23.10;81.20
70068;DHT22;57425;51.616;6.680;2023-08-12T05:26:56;23.10;81.40
70068;DHT22;57425;51.616;6.680;2023-08-12T05:29:21;23.00;81.50
70068;DHT22;57425;51.616;6.680;2023-08-12T05:31:47;23.10;81.80
70068;DHT22;57425;51.616;6.680;2023-08-12T05:34:13;23.00;81.80
70068;DHT22;57425;51.616;6.680;2023-08-12T05:36:38;23.00;81.90
70068;DHT22;57425;51.616;6.680;2023-08-12T05:39:04;23.00;82.00
70068;DHT22;57425;51.616;6.680;2023-08-12T05:41:30;23.00;82.00
70068;DHT22;57425;51.616;6.680;2023-08-12T05:43:56;23.00;81.90
70068;DHT22;57425;51.616;6.680;2023-08-12T05:46:22;23.00;82.50
70068;DHT22;57425;51.616;6.680;2023-08-12T05:48:47;23.00;82.60
70068;DHT22;57425;51.616;6.680;2023-08-12T05:51:13;23.00;82.00
70068;DHT22;57425;51.616;6.680;2023-08-12T05:53:38;23.00;82.10
70068;DHT22;57425;51.616;6.680;2023-08-12T05:56:04;23.00;82.00
70068;DHT22;57425;51.616;6.680;2023-08-12T05:58:30;23.00;82.00
70068;DHT22;57425;51.616;6.680;2023-08-12T06:00:55;23.00;82.00
70068;DHT22;57425;51.616;6.680;2023-08-12T06:03:21;23.00;82.00
70068;DHT22;57425;51.616;6.680;2023-08-12T06:05:47;23.00;81.90
70068;DHT22;57425;51.616;6.680;2023-08-12T06:08:13;23.00;81.80
70068;DHT22;57425;51.616;6.680;2023-08-12T06:10:39;23.00;81.70
70068;DHT22;57425;51.616;6.680;2023-08-12T06:13:05;22.90;81.60
70068;DHT22;57425;51.616;6.680;2023-08-12T06:15:31;22.90;81.60
70068;DHT22;57425;51.616;6.680;2023-08-12T06:18:01;22.90;81.50
70068;DHT22;57425;51.616;6.680;2023-08-12T06:20:27;23.00;81.50
70068;DHT22;57425;51.616;6.680;2023-08-12T06:22:53;23.00;81.60
70068;DHT22;57425;51.616;6.680;2023-08-12T06:25:19;23.00;81.60
70068;DHT22;57425;51.616;6.680;2023-08-12T06:27:46;23.00;81.40
70068;DHT22;57425;51.616;6.680;2023-08-12T06:30:14;22.90;81.90
70068;DHT22;57425;51.616;6.680;2023-08-12T06:32:41;23.00;81.30
70068;DHT22;57425;51.616;6.680;2023-08-12T06:35:07;22.90;81.20
70068;DHT22;57425;51.616;6.680;2023-08-12T06:37:33;23.00;81.20
70068;DHT22;57425;51.616;6.680;2023-08-12T06:39:58;23.00;81.20
70068;DHT22;57425;51.616;6.680;2023-08-12T06:42:24;22.90;81.10
70068;DHT22;57425;51.616;6.680;2023-08-12T06:44:55;22.90;81.10
70068;DHT22;57425;51.616;6.680;2023-08-12T06:47:21;22.90;81.00
70068;DHT22;57425;51.616;6.680;2023-08-12T06:49:46;22.90;80.90
70068;DHT22;57425;51.616;6.680;2023-08-12T06:52:12;23.10;81.00
70068;DHT22;57425;51.616;6.680;2023-08-12T06:54:38;22.90;80.90
70068;DHT22;57425;51.616;6.680;2023-08-12T06:57:03;23.00;81.00
70068;DHT22;57425;51.616;6.680;2023-08-12T06:59:29;22.90;80.90
70068;DHT22;57425;51.616;6.680;2023-08-12T07:01:56;22.90;80.90
70068;DHT22;57425;51.616;6.680;2023-08-12T07:04:22;22.90;80.80
70068;DHT22;57425;51.616;6.680;2023-08-12T07:06:48;23.00;81.00
70068;DHT22;57425;51.616;6.680;2023-08-12T07:09:14;23.00;81.00
70068;DHT22;57425;51.616;6.680;2023-08-12T07:11:40;23.00;81.20
70068;DHT22;57425;51.616;6.680;2023-08-12T07:14:05;23.10;81.30
70068;DHT22;57425;51.616;6.680;2023-08-12T07:16:33;23.10;82.00
70068;DHT22;57425;51.616;6.680;2023-08-12T07:18:59;23.10;81.70
70068;DHT22;57425;51.616;6.680;2023-08-12T07:21:24;23.10;81.80
70068;DHT22;57425;51.616;6.680;2023-08-12T07:23:50;23.10;81.80
70068;DHT22;57425;51.616;6.680;2023-08-12T07:26:15;23.10;81.80
70068;DHT22;57425;51.616;6.680;2023-08-12T07:28:41;23.20;82.50
70068;DHT22;57425;51.616;6.680;2023-08-12T07:31:07;23.20;82.00
70068;DHT22;57425;51.616;6.680;2023-08-12T07:33:32;23.20;82.00
70068;DHT22;57425;51.616;6.680;2023-08-12T07:35:58;23.20;82.60
70068;DHT22;57425;51.616;6.680;2023-08-12T07:38:24;23.20;82.00
70068;DHT22;57425;51.616;6.680;2023-08-12T07:40:50;23.20;82.60
70068;DHT22;57425;51.616;6.680;2023-08-12T07:43:16;23.20;81.80
70068;DHT22;57425;51.616;6.680;2023-08-12T07:45:41;23.20;81.80
70068;DHT22;57425;51.616;6.680;2023-08-12T07:48:07;23.20;81.80
70068;DHT22;57425;51.616;6.680;2023-08-12T07:50:33;23.20;81.70
70068;DHT22;57425;51.616;6.680;2023-08-12T07:52:58;23.20;81.60
70068;DHT22;57425;51.616;6.680;2023-08-12T07:55:24;23.20;82.20
70068;DHT22;57425;51.616;6.680;2023-08-12T07:57:49;23.20;81.80
70068;DHT22;57425;51.616;6.680;2023-08-12T08:00:15;23.20;81.80
70068;DHT22;57425;51.616;6.680;2023-08-12T08:02:41;23.30;81.90
70068;DHT22;57425;51.616;6.680;2023-08-12T08:05:06;23.20;82.10
70068;DHT22;57425;51.616;6.680;2023-08-12T08:07:32;23.30;82.10
70068;DHT22;57425;51.616;6.680;2023-08-12T08:09:58;23.30;82.20
70068;DHT22;57425;51.616;6.680;2023-08-12T08:12:24;23.30;82.10
70068;DHT22;57425;51.616;6.680;2023-08-12T08:14:49;23.20;82.10
70068;DHT22;57425;51.616;6.680;2023-08-12T08:17:16;23.30;82.10
70068;DHT22;57425;51.616;6.680;2023-08-12T08:19:42;23.30;82.60
70068;DHT22;57425;51.616;6.680;2023-08-12T08:22:07;23.30;82.20
70068;DHT22;57425;51.616;6.680;2023-08-12T08:24:33;23.30;82.20
70068;DHT22;57425;51.616;6.680;2023-08-12T08:26:58;23.30;82.20
70068;DHT22;57425;51.616;6.680;2023-08-12T08:29:24;23.30;82.30
70068;DHT22;57425;51.616;6.680;2023-08-12T08:31:50;23.30;82.30
70068;DHT22;57425;51.616;6.680;2023-08-12T08:34:15;23.30;82.30
70068;DHT22;57425;51.616;6.680;2023-08-12T08:36:41;23.30;82.40
70068;DHT22;57425;51.616;6.680;2023-08-12T08:39:07;23.30;82.40
70068;DHT22;57425;51.616;6.680;2023-08-12T08:41:37;23.30;82.40
70068;DHT22;57425;51.616;6.680;2023-08-12T08:44:07;23.30;82.50
70068;DHT22;57425;51.616;6.680;2023-08-12T08:46:33;23.30;82.80
70068;DHT22;57425;51.616;6.680;2023-08-12T08:48:59;23.30;82.70
70068;DHT22;57425;51.616;6.680;2023-08-12T08:51:27;23.30;82.50
70068;DHT22;57425;51.616;6.680;2023-08-12T08:53:54;23.30;82.50
70068;DHT22;57425;51.616;6.680;2023-08-12T08:56:21;23.30;82.70
70068;DHT22;57425;51.616;6.680;2023-08-12T08:58:47;23.40;82.70
70068;DHT22;57425;51.616;6.680;2023-08-12T09:01:14;23.30;82.70
70068;DHT22;57425;51.616;6.680;2023-08-12T09:03:42;23.40;82.70
70068;DHT22;57425;51.616;6.680;2023-08-12T09:06:08;23.40;82.70
70068;DHT22;57425;51.616;6.680;2023-08-12T09:08:35;23.30;82.50
70068;DHT22;57425;51.616;6.680;2023-08-12T09:11:02;23.40;82.60
70068;DHT22;57425;51.616;6.680;2023-08-12T09:13:28;23.30;82.50
70068;DHT22;57425;51.616;6.680;2023-08-12T09:15:54;23.40;82.50
70068;DHT22;57425;51.616;6.680;2023-08-12T09:18:20;23.40;82.50
70068;DHT22;57425;51.616;6.680;2023-08-12T09:20:50;23.40;83.10
70068;DHT22;57425;51.616;6.680;2023-08-12T09:23:15;23.40;82.60
70068;DHT22;57425;51.616;6.680;2023-08-12T09:25:43;23.40;82.60
70068;DHT22;57425;51.616;6.680;2023-08-12T09:28:12;23.40;82.60
70068;DHT22;57425;51.616;6.680;2023-08-12T09:30:38;23.40;82.60
70068;DHT22;57425;51.616;6.680;2023-08-12T09:33:06;23.40;82.60
70068;DHT22;57425;51.616;6.680;2023-08-12T09:35:40;23.40;82.60
70068;DHT22;57425;51.616;6.680;2023-08-12T09:38:13;23.40;82.60
70068;DHT22;57425;51.616;6.680;2023-08-12T09:40:39;23.40;83.20
70068;DHT22;57425;51.616;6.680;2023-08-12T09:43:04;23.50;82.60
70068;DHT22;57425;51.616;6.680;2023-08-12T09:45:31;23.40;82.50
70068;DHT22;57425;51.616;6.680;2023-08-12T09:47:57;23.50;82.70
70068;DHT22;57425;51.616;6.680;2023-08-12T09:50:26;23.50;82.70
70068;DHT22;57425;51.616;6.680;2023-08-12T09:52:53;23.40;82.70
70068;DHT22;57425;51.616;6.680;2023-08-12T09:55:22;23.50;82.70
70068;DHT22;57425;51.616;6.680;2023-08-12T09:57:51;23.50;82.70
70068;DHT22;57425;51.616;6.680;2023-08-12T10:00:19;23.50;82.70
70068;DHT22;57425;51.616;6.680;2023-08-12T10:02:47;23.40;82.70
70068;DHT22;57425;51.616;6.680;2023-08-12T10:05:19;23.50;82.70
70068;DHT22;57425;51.616;6.680;2023-08-12T10:07:45;23.50;82.70
70068;DHT22;57425;51.616;6.680;2023-08-12T10:10:12;23.50;83.20
70068;DHT22;57425;51.616;6.680;2023-08-12T10:12:39;23.50;82.70
70068;DHT22;57425;51.616;6.680;2023-08-12T10:15:05;23.50;82.70
70068;DHT22;57425;51.616;6.680;2023-08-12T10:17:33;23.50;82.70
70068;DHT22;57425;51.616;6.680;2023-08-12T10:20:02;23.50;82.70
70068;DHT22;57425;51.616;6.680;2023-08-12T10:22:31;23.50;82.70
70068;DHT22;57425;51.616;6.680;2023-08-12T10:24:59;23.60;83.30
70068;DHT22;57425;51.616;6.680;2023-08-12T10:27:26;23.50;82.60
70068;DHT22;57425;51.616;6.680;2023-08-12T10:29:52;23.60;82.50
70068;DHT22;57425;51.616;6.680;2023-08-12T10:32:18;23.50;82.50
70068;DHT22;57425;51.616;6.680;2023-08-12T10:34:44;23.60;82.50
70068;DHT22;57425;51.616;6.680;2023-08-12T10:37:10;23.60;82.50
70068;DHT22;57425;51.616;6.680;2023-08-12T10:39:37;23.60;82.60
70068;DHT22;57425;51.616;6.680;2023-08-12T10:42:04;23.60;82.60
70068;DHT22;57425;51.616;6.680;2023-08-12T10:44:49;23.60;82.70
70068;DHT22;57425;51.616;6.680;2023-08-12T10:47:16;23.60;82.60
70068;DHT22;57425;51.616;6.680;2023-08-12T10:49:49;23.60;82.80
70068;DHT22;57425;51.616;6.680;2023-08-12T10:52:32;23.60;82.80
70068;DHT22;57425;51.616;6.680;2023-08-12T10:55:17;23.60;82.80
70068;DHT22;57425;51.616;6.680;2023-08-12T10:57:43;23.60;82.80
70068;DHT22;57425;51.616;6.680;2023-08-12T11:00:35;23.60;83.00
70068;DHT22;57425;51.616;6.680;2023-08-12T11:03:05;23.70;82.90
70068;DHT22;57425;51.616;6.680;2023-08-12T11:05:37;23.60;83.00
70068;DHT22;57425;51.616;6.680;2023-08-12T11:08:05;23.60;83.00
70068;DHT22;57425;51.616;6.680;2023-08-12T11:10:32;23.60;83.10
70068;DHT22;57425;51.616;6.680;2023-08-12T11:12:59;23.60;83.20
70068;DHT22;57425;51.616;6.680;2023-08-12T11:15:43;23.70;83.40
70068;DHT22;57425;51.616;6.680;2023-08-12T11:18:15;23.70;83.50
70068;DHT22;57425;51.616;6.680;2023-08-12T11:20:43;23.60;83.50
70068;DHT22;57425;51.616;6.680;2023-08-12T11:23:09;23.70;83.60
70068;DHT22;57425;51.616;6.680;2023-08-12T11:25:39;23.70;83.70
70068;DHT22;57425;51.616;6.680;2023-08-12T11:28:06;23.70;83.80
70068;DHT22;57425;51.616;6.680;2023-08-12T11:30:32;23.70;83.80
70068;DHT22;57425;51.616;6.680;2023-08-12T11:32:59;23.70;83.70
70068;DHT22;57425;51.616;6.680;2023-08-12T11:35:25;23.70;83.80
70068;DHT22;57425;51.616;6.680;2023-08-12T11:37:53;23.70;83.70
70068;DHT22;57425;51.616;6.680;2023-08-12T11:40:20;23.70;83.70
70068;DHT22;57425;51.616;6.680;2023-08-12T11:42:47;23.70;83.70
70068;DHT22;57425;51.616;6.680;2023-08-12T11:45:15;23.70;83.80
70068;DHT22;57425;51.616;6.680;2023-08-12T11:47:41;23.80;83.80
70068;DHT22;57425;51.616;6.680;2023-08-12T11:50:10;23.80;83.80
70068;DHT22;57425;51.616;6.680;2023-08-12T11:52:37;23.80;83.90
70068;DHT22;57425;51.616;6.680;2023-08-12T11:55:03;23.80;83.90
70068;DHT22;57425;51.616;6.680;2023-08-12T11:57:29;23.80;83.90
70068;DHT22;57425;51.616;6.680;2023-08-12T12:00:06;23.80;83.90
70068;DHT22;57425;51.616;6.680;2023-08-12T12:02:39;23.80;83.90
70068;DHT22;57425;51.616;6.680;2023-08-12T12:05:11;23.80;83.90
70068;DHT22;57425;51.616;6.680;2023-08-12T12:07:37;23.80;83.90
70068;DHT22;57425;51.616;6.680;2023-08-12T12:10:04;23.80;83.90
70068;DHT22;57425;51.616;6.680;2023-08-12T12:12:33;23.80;84.00
70068;DHT22;57425;51.616;6.680;2023-08-12T12:15:01;23.80;84.00
70068;DHT22;57425;51.616;6.680;2023-08-12T12:17:26;23.80;83.90
70068;DHT22;57425;51.616;6.680;2023-08-12T12:19:59;23.80;83.90
70068;DHT22;57425;51.616;6.680;2023-08-12T12:22:31;23.80;83.90
70068;DHT22;57425;51.616;6.680;2023-08-12T12:25:06;23.80;83.70
70068;DHT22;57425;51.616;6.680;2023-08-12T12:27:32;23.80;83.80
70068;DHT22;57425;51.616;6.680;2023-08-12T12:29:59;23.80;83.70
70068;DHT22;57425;51.616;6.680;2023-08-12T12:32:25;23.80;83.70
70068;DHT22;57425;51.616;6.680;2023-08-12T12:34:51;23.90;83.70
70068;DHT22;57425;51.616;6.680;2023-08-12T12:37:17;23.80;83.70
70068;DHT22;57425;51.616;6.680;2023-08-12T12:39:43;23.90;83.70
70068;DHT22;57425;51.616;6.680;2023-08-12T12:42:10;23.90;83.60
70068;DHT22;57425;51.616;6.680;2023-08-12T12:44:35;23.90;83.60
70068;DHT22;57425;51.616;6.680;2023-08-12T12:47:02;23.80;83.60
70068;DHT22;57425;51.616;6.680;2023-08-12T12:49:28;23.90;83.70
70068;DHT22;57425;51.616;6.680;2023-08-12T12:51:53;23.80;83.60
70068;DHT22;57425;51.616;6.680;2023-08-12T12:54:19;23.90;83.50
70068;DHT22;57425;51.616;6.680;2023-08-12T12:56:45;23.90;83.30
70068;DHT22;57425;51.616;6.680;2023-08-12T12:59:11;23.90;83.80
70068;DHT22;57425;51.616;6.680;2023-08-12T13:01:36;23.90;83.20
70068;DHT22;57425;51.616;6.680;2023-08-12T13:04:02;23.90;83.10
70068;DHT22;57425;51.616;6.680;2023-08-12T13:06:28;23.90;83.10
70068;DHT22;57425;51.616;6.680;2023-08-12T13:08:55;23.90;83.00
70068;DHT22;57425;51.616;6.680;2023-08-12T13:11:21;23.90;82.90
70068;DHT22;57425;51.616;6.680;2023-08-12T13:13:47;23.90;82.90
70068;DHT22;57425;51.616;6.680;2023-08-12T13:16:13;23.90;82.90
70068;DHT22;57425;51.616;6.680;2023-08-12T13:18:38;23.90;82.80
70068;DHT22;57425;51.616;6.680;2023-08-12T13:21:04;23.90;82.60
70068;DHT22;57425;51.616;6.680;2023-08-12T13:23:30;23.90;82.50
70068;DHT22;57425;51.616;6.680;2023-08-12T13:25:56;23.90;82.30
70068;DHT22;57425;51.616;6.680;2023-08-12T13:28:22;23.90;82.30
70068;DHT22;57425;51.616;6.680;2023-08-12T13:30:48;23.90;82.40
70068;DHT22;57425;51.616;6.680;2023-08-12T13:33:14;23.90;82.40
70068;DHT22;57425;51.616;6.680;2023-08-12T13:35:39;23.90;82.40
70068;DHT22;57425;51.616;6.680;2023-08-12T13:38:05;23.90;82.40
70068;DHT22;57425;51.616;6.680;2023-08-12T13:40:31;23.90;82.40
70068;DHT22;57425;51.616;6.680;2023-08-12T13:42:56;23.90;83.00
70068;DHT22;57425;51.616;6.680;2023-08-12T13:45:22;23.90;82.40
70068;DHT22;57425;51.616;6.680;2023-08-12T13:47:50;23.90;82.40
70068;DHT22;57425;51.616;6.680;2023-08-12T13:50:17;23.90;82.80
70068;DHT22;57425;51.616;6.680;2023-08-12T13:52:42;23.90;82.40
70068;DHT22;57425;51.616;6.680;2023-08-12T13:55:08;23.90;82.40
70068;DHT22;57425;51.616;6.680;2023-08-12T13:57:35;23.90;82.30
70068;DHT22;57425;51.616;6.680;2023-08-12T14:00:00;23.90;82.40
70068;DHT22;57425;51.616;6.680;2023-08-12T14:02:27;23.90;82.40
70068;DHT22;57425;51.616;6.680;2023-08-12T14:04:54;24.00;82.50
70068;DHT22;57425;51.616;6.680;2023-08-12T14:07:19;23.90;82.50
70068;DHT22;57425;51.616;6.680;2023-08-12T14:09:47;23.90;82.50
70068;DHT22;57425;51.616;6.680;2023-08-12T14:12:14;23.90;82.40
70068;DHT22;57425;51.616;6.680;2023-08-12T14:14:40;24.00;82.30
70068;DHT22;57425;51.616;6.680;2023-08-12T14:17:05;24.00;82.40
70068;DHT22;57425;51.616;6.680;2023-08-12T14:19:31;23.90;82.20
70068;DHT22;57425;51.616;6.680;2023-08-12T14:21:57;23.90;81.80
70068;DHT22;57425;51.616;6.680;2023-08-12T14:24:22;24.00;81.50
70068;DHT22;57425;51.616;6.680;2023-08-12T14:26:49;24.00;81.30
70068;DHT22;57425;51.616;6.680;2023-08-12T14:29:15;24.00;81.20
70068;DHT22;57425;51.616;6.680;2023-08-12T14:31:40;24.00;81.40
70068;DHT22;57425;51.616;6.680;2023-08-12T14:34:06;24.00;81.30
70068;DHT22;57425;51.616;6.680;2023-08-12T14:36:32;24.00;81.20
